createdAt,value
2022-08-20T00:01:16.827Z,10.85
2022-08-20T00:03:49.992Z,11.25
2022-08-20T00:06:22.706Z,11.70
2022-08-20T00:08:50.736Z,11.55
2022-08-20T00:11:24.252Z,13.18
2022-08-20T00:13:57.933Z,8.82
2022-08-20T00:16:27.868Z,12.90
2022-08-20T00:18:55.953Z,12.85
2022-08-20T00:21:25.372Z,11.30
2022-08-20T00:23:54.909Z,11.40
2022-08-20T00:26:23.133Z,8.27
2022-08-20T00:28:50.675Z,11.05
2022-08-20T00:31:22.052Z,13.98
2022-08-20T00:33:50.044Z,9.13
2022-08-20T00:36:18.144Z,11.80
2022-08-20T00:38:46.959Z,10.30
2022-08-20T00:41:20.034Z,10.40
2022-08-20T00:43:51.964Z,14.25
2022-08-20T00:46:30.928Z,9.90
2022-08-20T00:49:01.763Z,12.10
2022-08-20T00:51:39.093Z,9.50
2022-08-20T00:54:16.128Z,11.50
2022-08-20T00:56:51.044Z,8.20
2022-08-20T00:59:25.365Z,11.35
2022-08-20T01:04:31.399Z,11.73
2022-08-20T01:06:59.964Z,11.68
2022-08-20T01:09:50.311Z,11.27
2022-08-20T01:12:16.718Z,14.32
2022-08-20T01:14:45.503Z,10.32
2022-08-20T01:17:22.230Z,14.93
2022-08-20T01:19:59.330Z,11.75
2022-08-20T01:22:58.672Z,14.18
2022-08-20T01:25:53.425Z,11.52
2022-08-20T01:28:34.168Z,11.15
2022-08-20T01:31:03.708Z,10.65
2022-08-20T01:33:32.007Z,11.35
2022-08-20T01:36:00.565Z,12.60
2022-08-20T01:38:29.788Z,13.15
2022-08-20T01:41:28.722Z,10.20
2022-08-20T01:43:58.375Z,13.80
2022-08-20T01:46:30.185Z,8.80
2022-08-20T01:48:58.723Z,10.93
2022-08-20T01:51:30.512Z,9.73
2022-08-20T01:53:59.861Z,13.02
2022-08-20T01:56:31.638Z,9.32
2022-08-20T01:59:02.376Z,13.27
2022-08-20T02:01:46.177Z,9.73
2022-08-20T02:04:15.282Z,11.85
2022-08-20T02:06:56.598Z,8.95
2022-08-20T02:09:30.256Z,11.82
2022-08-20T02:11:58.925Z,11.05
2022-08-20T02:14:27.790Z,10.32
2022-08-20T02:16:58.362Z,12.50
2022-08-20T02:19:38.390Z,8.75
2022-08-20T02:22:17.893Z,8.40
2022-08-20T02:24:45.693Z,13.02
2022-08-20T02:27:13.805Z,14.85
2022-08-20T02:29:41.752Z,10.60
2022-08-20T02:32:32.770Z,9.23
2022-08-20T02:34:57.176Z,10.70
2022-08-20T02:37:24.808Z,10.38
2022-08-20T02:39:52.234Z,11.32
2022-08-20T02:42:19.645Z,10.77
2022-08-20T02:44:47.256Z,12.30
2022-08-20T02:47:17.137Z,8.95
2022-08-20T02:49:44.581Z,11.55
2022-08-20T02:52:12.272Z,11.02
2022-08-20T02:54:39.880Z,9.23
2022-08-20T02:57:13.366Z,13.10
2022-08-20T02:59:41.301Z,11.45
2022-08-20T03:02:08.689Z,12.25
2022-08-20T03:04:36.414Z,9.75
2022-08-20T03:07:06.084Z,9.88
2022-08-20T03:09:33.553Z,10.63
2022-08-20T03:12:00.964Z,9.35
2022-08-20T03:14:28.869Z,8.00
2022-08-20T03:16:56.621Z,10.07
2022-08-20T03:19:24.059Z,9.93
2022-08-20T03:21:51.896Z,10.43
2022-08-20T03:24:19.717Z,12.25
2022-08-20T03:26:47.374Z,9.80
2022-08-20T03:29:15.118Z,8.55
2022-08-20T03:31:42.759Z,16.77
2022-08-20T03:34:10.209Z,11.98
2022-08-20T03:36:38.211Z,8.75
2022-08-20T03:39:11.580Z,9.00
2022-08-20T03:41:39.459Z,14.77
2022-08-20T03:44:06.969Z,11.57
2022-08-20T03:46:34.952Z,12.18
2022-08-20T03:49:03.446Z,10.30
2022-08-20T03:51:31.686Z,11.88
2022-08-20T03:54:11.610Z,13.57
2022-08-20T03:56:39.121Z,13.07
2022-08-20T03:59:06.589Z,11.75
2022-08-20T04:01:45.827Z,12.40
2022-08-20T04:04:15.108Z,15.55
2022-08-20T04:06:43.253Z,11.65
2022-08-20T04:09:11.806Z,15.55
2022-08-20T04:11:40.991Z,14.02
2022-08-20T04:14:11.353Z,11.07
2022-08-20T04:16:41.712Z,12.00
2022-08-20T04:19:09.185Z,14.18
2022-08-20T04:21:36.902Z,14.63
2022-08-20T04:24:06.146Z,11.75
2022-08-20T04:26:35.576Z,12.40
2022-08-20T04:29:04.068Z,15.73
2022-08-20T04:31:34.921Z,10.45
2022-08-20T04:34:07.879Z,16.38
2022-08-20T04:36:35.559Z,12.20
2022-08-20T04:39:03.344Z,15.25
2022-08-20T04:41:30.825Z,10.98
2022-08-20T04:43:58.618Z,15.05
2022-08-20T04:46:28.523Z,12.55
2022-08-20T04:48:57.615Z,15.55
2022-08-20T04:51:25.725Z,15.80
2022-08-20T04:53:54.952Z,14.00
2022-08-20T04:56:26.757Z,12.75
2022-08-20T04:58:58.341Z,13.45
2022-08-20T05:01:26.653Z,13.05
2022-08-20T05:03:57.380Z,15.57
2022-08-20T05:06:29.137Z,14.48
2022-08-20T05:08:58.744Z,17.45
2022-08-20T05:11:35.539Z,16.67
2022-08-20T05:14:08.895Z,16.42
2022-08-20T05:16:39.313Z,18.80
2022-08-20T05:19:10.060Z,17.20
2022-08-20T05:21:38.651Z,17.48
2022-08-20T05:24:06.719Z,19.45
2022-08-20T05:26:34.563Z,19.50
2022-08-20T05:29:04.897Z,16.45
2022-08-20T05:31:34.662Z,20.52
2022-08-20T05:34:09.802Z,16.85
2022-08-20T05:36:43.960Z,19.48
2022-08-20T05:39:13.288Z,16.80
2022-08-20T05:41:41.009Z,18.60
2022-08-20T05:44:13.109Z,19.58
2022-08-20T05:46:42.692Z,17.98
2022-08-20T05:49:13.496Z,14.38
2022-08-20T05:51:41.072Z,15.18
2022-08-20T05:54:08.593Z,18.02
2022-08-20T05:56:37.744Z,16.45
2022-08-20T05:59:07.057Z,15.85
2022-08-20T06:01:36.905Z,17.95
2022-08-20T06:04:23.764Z,15.75
2022-08-20T06:06:53.601Z,20.38
2022-08-20T06:09:31.220Z,15.02
2022-08-20T06:12:02.224Z,19.95
2022-08-20T06:14:30.888Z,23.58
2022-08-20T06:17:15.185Z,21.65
2022-08-20T06:19:45.576Z,15.23
2022-08-20T06:22:19.719Z,18.40
2022-08-20T06:24:55.316Z,17.17
2022-08-20T06:27:23.792Z,16.83
2022-08-20T06:29:52.027Z,20.65
2022-08-20T06:32:32.363Z,18.70
2022-08-20T06:35:02.293Z,17.65
2022-08-20T06:37:32.616Z,18.17
2022-08-20T06:40:05.078Z,22.77
2022-08-20T06:42:33.193Z,17.55
2022-08-20T06:45:04.746Z,19.63
2022-08-20T06:47:33.461Z,16.25
2022-08-20T06:50:01.184Z,21.52
2022-08-20T06:52:52.461Z,26.45
2022-08-20T06:55:17.428Z,17.02
2022-08-20T06:57:44.961Z,20.70
2022-08-20T07:00:18.884Z,18.23
2022-08-20T07:02:47.956Z,21.38
2022-08-20T07:05:16.430Z,21.73
2022-08-20T07:07:49.515Z,18.60
2022-08-20T07:10:19.057Z,14.50
2022-08-20T07:12:47.312Z,19.48
2022-08-20T07:15:15.257Z,17.00
2022-08-20T07:17:48.189Z,17.35
2022-08-20T07:20:16.132Z,18.90
2022-08-20T07:22:43.879Z,17.20
2022-08-20T07:25:14.314Z,21.95
2022-08-20T07:27:43.051Z,13.90
2022-08-20T07:30:34.441Z,19.85
2022-08-20T07:33:21.930Z,19.10
2022-08-20T07:35:49.775Z,19.83
2022-08-20T07:38:24.714Z,17.45
2022-08-20T07:40:55.186Z,20.73
2022-08-20T07:43:25.577Z,17.15
2022-08-20T07:45:58.858Z,21.13
2022-08-20T07:48:32.031Z,18.40
2022-08-20T07:51:03.664Z,15.75
2022-08-20T07:53:36.395Z,17.23
2022-08-20T07:56:06.639Z,20.38
2022-08-20T07:58:38.353Z,18.35
2022-08-20T08:01:06.753Z,17.25
2022-08-20T08:03:39.427Z,17.65
2022-08-20T08:06:29.503Z,16.65
2022-08-20T08:09:13.161Z,15.75
2022-08-20T08:11:47.689Z,16.15
2022-08-20T08:14:19.483Z,16.83
2022-08-20T08:16:47.685Z,17.27
2022-08-20T08:19:17.352Z,15.63
2022-08-20T08:21:44.980Z,13.98
2022-08-20T08:24:19.239Z,17.92
2022-08-20T08:26:50.071Z,18.15
2022-08-20T08:29:18.308Z,15.00
2022-08-20T08:31:45.879Z,17.67
2022-08-20T08:34:14.310Z,15.52
2022-08-20T08:36:44.073Z,15.60
2022-08-20T08:39:11.494Z,17.45
2022-08-20T08:41:48.432Z,16.52
2022-08-20T08:44:24.452Z,16.90
2022-08-20T08:47:00.541Z,18.92
2022-08-20T08:49:37.780Z,17.20
2022-08-20T08:52:12.254Z,11.93
2022-08-20T08:54:45.784Z,18.83
2022-08-20T08:57:13.821Z,16.00
2022-08-20T08:59:48.590Z,17.77
2022-08-20T09:02:30.853Z,16.92
2022-08-20T09:05:02.196Z,17.02
2022-08-20T09:07:32.609Z,13.27
2022-08-20T09:10:02.314Z,19.13
2022-08-20T09:12:29.808Z,15.20
2022-08-20T09:14:58.249Z,19.98
2022-08-20T09:17:25.982Z,21.08
2022-08-20T09:19:54.307Z,20.50
2022-08-20T09:22:25.905Z,23.98
2022-08-20T09:24:53.637Z,20.27
2022-08-20T09:27:21.167Z,15.55
2022-08-20T09:29:49.400Z,17.67
2022-08-20T09:32:21.347Z,22.77
2022-08-20T09:34:52.689Z,20.63
2022-08-20T09:37:20.425Z,22.30
2022-08-20T09:39:48.525Z,24.88
2022-08-20T09:42:20.753Z,22.50
2022-08-20T09:44:50.962Z,18.38
2022-08-20T09:47:19.534Z,21.98
2022-08-20T09:49:47.430Z,18.40
2022-08-20T09:52:26.946Z,20.65
2022-08-20T09:54:59.203Z,22.17
2022-08-20T09:57:29.471Z,24.17
2022-08-20T10:00:05.138Z,19.17
2022-08-20T10:02:32.820Z,18.60
2022-08-20T10:05:00.480Z,24.55
2022-08-20T10:07:28.008Z,19.42
2022-08-20T10:09:57.190Z,17.48
2022-08-20T10:12:24.605Z,20.67
2022-08-20T10:14:52.120Z,23.42
2022-08-20T10:17:19.745Z,15.10
2022-08-20T10:19:47.488Z,17.75
2022-08-20T10:22:15.047Z,23.00
2022-08-20T10:24:43.107Z,18.52
2022-08-20T10:27:10.544Z,20.75
2022-08-20T10:29:38.049Z,20.35
2022-08-20T10:32:12.583Z,19.10
2022-08-20T10:34:42.736Z,19.70
2022-08-20T10:37:20.966Z,19.00
2022-08-20T10:39:48.475Z,16.60
2022-08-20T10:42:16.174Z,18.42
2022-08-20T10:44:44.125Z,20.92
2022-08-20T10:47:24.965Z,19.98
2022-08-20T10:49:54.773Z,18.50
2022-08-20T10:52:23.668Z,16.00
2022-08-20T10:54:51.851Z,22.08
2022-08-20T10:57:27.887Z,18.50
2022-08-20T10:59:57.412Z,20.08
2022-08-20T11:02:27.192Z,16.48
2022-08-20T11:04:55.424Z,18.90
2022-08-20T11:07:50.848Z,21.73
2022-08-20T11:10:18.750Z,15.60
2022-08-20T11:12:46.498Z,17.88
2022-08-20T11:15:15.073Z,15.60
2022-08-20T11:17:45.145Z,17.58
2022-08-20T11:20:15.150Z,18.63
2022-08-20T11:22:42.535Z,21.50
2022-08-20T11:25:10.736Z,18.95
2022-08-20T11:27:42.411Z,20.08
2022-08-20T11:30:14.057Z,18.48
2022-08-20T11:32:42.011Z,15.98
2022-08-20T11:35:40.527Z,24.13
2022-08-20T11:37:59.302Z,19.80
2022-08-20T11:40:29.558Z,22.85
2022-08-20T11:43:14.270Z,32.72
2022-08-20T11:45:44.642Z,24.75
2022-08-20T11:48:12.378Z,25.27
2022-08-20T11:50:39.918Z,21.42
2022-08-20T11:53:07.919Z,23.48
2022-08-20T11:55:36.931Z,21.10
2022-08-20T11:58:04.409Z,18.33
2022-08-20T12:00:33.915Z,20.48
2022-08-20T12:03:05.104Z,18.17
2022-08-20T12:05:33.581Z,20.40
2022-08-20T12:08:01.630Z,17.15
2022-08-20T12:10:30.415Z,22.23
2022-08-20T12:12:58.303Z,24.15
2022-08-20T12:15:27.644Z,16.75
2022-08-20T12:17:55.980Z,17.67
2022-08-20T12:20:24.560Z,17.30
2022-08-20T12:22:53.887Z,19.42
2022-08-20T12:25:21.602Z,17.08
2022-08-20T12:27:49.071Z,15.57
2022-08-20T12:30:20.199Z,20.55
2022-08-20T12:32:48.984Z,21.33
2022-08-20T12:35:17.698Z,21.00
2022-08-20T12:37:47.103Z,16.80
2022-08-20T12:40:24.470Z,24.85
2022-08-20T12:43:04.189Z,20.38
2022-08-20T12:45:33.472Z,19.70
2022-08-20T12:48:10.826Z,18.85
2022-08-20T12:50:41.169Z,15.88
2022-08-20T12:53:10.601Z,18.83
2022-08-20T12:55:38.282Z,20.77
2022-08-20T12:58:08.745Z,17.73
2022-08-20T13:00:44.298Z,17.58
2022-08-20T13:03:15.158Z,16.40
2022-08-20T13:05:45.003Z,18.55
2022-08-20T13:08:13.037Z,17.75
2022-08-20T13:10:45.440Z,18.45
2022-08-20T13:13:15.546Z,14.63
2022-08-20T13:15:49.742Z,22.30
2022-08-20T13:18:17.518Z,17.83
2022-08-20T13:20:45.118Z,19.00
2022-08-20T13:23:12.890Z,18.10
2022-08-20T13:25:40.313Z,18.35
2022-08-20T13:28:08.056Z,17.00
2022-08-20T13:30:38.642Z,19.77
2022-08-20T13:33:06.263Z,15.25
2022-08-20T13:35:34.042Z,14.85
2022-08-20T13:38:02.464Z,17.30
2022-08-20T13:40:29.884Z,17.85
2022-08-20T13:42:57.609Z,19.85
2022-08-20T13:45:25.516Z,22.73
2022-08-20T13:47:55.628Z,20.15
2022-08-20T13:50:25.559Z,20.05
2022-08-20T13:52:54.982Z,20.30
2022-08-20T13:55:26.146Z,18.17
2022-08-20T13:57:55.876Z,18.17
2022-08-20T14:00:31.709Z,19.98
2022-08-20T14:03:05.782Z,20.58
2022-08-20T14:05:34.080Z,16.58
2022-08-20T14:08:11.669Z,19.75
2022-08-20T14:10:40.107Z,15.70
2022-08-20T14:13:15.464Z,19.30
2022-08-20T14:15:45.069Z,23.92
2022-08-20T14:18:14.471Z,13.45
2022-08-20T14:20:45.448Z,16.25
2022-08-20T14:23:14.182Z,15.45
2022-08-20T14:25:46.248Z,21.52
2022-08-20T14:28:18.072Z,20.27
2022-08-20T14:30:53.267Z,14.35
2022-08-20T14:33:22.775Z,22.15
2022-08-20T14:35:51.476Z,34.50
2022-08-20T14:38:19.222Z,21.48
2022-08-20T14:40:47.347Z,17.42
2022-08-20T14:43:14.979Z,16.92
2022-08-20T14:45:42.512Z,18.73
2022-08-20T14:48:10.153Z,17.33
2022-08-20T14:50:38.568Z,20.00
2022-08-20T14:53:07.809Z,17.80
2022-08-20T14:55:37.505Z,18.40
2022-08-20T14:58:10.077Z,19.05
2022-08-20T15:00:37.947Z,17.05
2022-08-20T15:03:05.621Z,14.25
2022-08-20T15:05:33.756Z,20.83
2022-08-20T15:08:01.268Z,20.10
2022-08-20T15:10:32.551Z,14.88
2022-08-20T15:13:02.456Z,12.90
2022-08-20T15:15:30.034Z,15.50
2022-08-20T15:18:00.308Z,20.33
2022-08-20T15:20:31.158Z,18.85
2022-08-20T15:22:59.774Z,15.10
2022-08-20T15:25:36.055Z,15.88
2022-08-20T15:28:07.623Z,16.17
2022-08-20T15:30:35.805Z,17.67
2022-08-20T15:33:03.646Z,17.55
2022-08-20T15:35:31.507Z,18.42
2022-08-20T15:37:59.923Z,18.05
2022-08-20T15:40:30.990Z,13.57
2022-08-20T15:43:00.463Z,16.02
2022-08-20T15:45:28.592Z,15.15
2022-08-20T15:48:18.407Z,15.45
2022-08-20T15:50:52.120Z,16.90
2022-08-20T15:53:41.342Z,21.50
2022-08-20T15:56:29.938Z,15.20
2022-08-20T15:59:03.569Z,16.13
2022-08-20T16:01:43.645Z,15.23
2022-08-20T16:04:20.164Z,15.20
2022-08-20T16:06:52.221Z,14.00
2022-08-20T16:09:52.099Z,13.48
2022-08-20T16:12:33.360Z,16.42
2022-08-20T16:15:09.088Z,14.75
2022-08-20T16:17:46.725Z,16.55
2022-08-20T16:20:24.716Z,15.25
2022-08-20T16:22:53.315Z,15.45
2022-08-20T16:25:22.866Z,18.40
2022-08-20T16:28:17.025Z,19.10
2022-08-20T16:30:49.489Z,15.18
2022-08-20T16:33:26.675Z,16.42
2022-08-20T16:35:59.054Z,13.73
2022-08-20T16:38:41.746Z,13.63
2022-08-20T16:41:37.912Z,15.88
2022-08-20T16:44:35.416Z,16.27
2022-08-20T16:47:17.113Z,14.77
2022-08-20T16:49:54.143Z,14.45
2022-08-20T16:52:21.673Z,15.25
2022-08-20T16:54:49.397Z,13.70
2022-08-20T16:57:18.497Z,15.88
2022-08-20T17:00:16.192Z,17.58
2022-08-20T17:02:53.559Z,12.60
2022-08-20T17:05:23.903Z,16.23
2022-08-20T17:08:03.711Z,13.43
2022-08-20T17:10:35.590Z,14.43
2022-08-20T17:13:19.415Z,13.38
2022-08-20T17:16:13.247Z,15.05
2022-08-20T17:18:46.897Z,11.85
2022-08-20T17:21:25.779Z,13.27
2022-08-20T17:23:59.382Z,15.10
2022-08-20T17:26:41.229Z,14.40
2022-08-20T17:29:17.460Z,11.20
2022-08-20T17:31:52.124Z,13.05
2022-08-20T17:34:24.714Z,14.32
2022-08-20T17:36:57.860Z,12.02
2022-08-20T17:39:27.695Z,12.32
2022-08-20T17:42:19.578Z,20.55
2022-08-20T17:44:52.954Z,12.65
2022-08-20T17:47:31.010Z,16.50
2022-08-20T17:50:13.754Z,15.75
2022-08-20T17:52:55.239Z,12.10
2022-08-20T17:55:23.743Z,18.70
2022-08-20T17:57:57.931Z,15.25
2022-08-20T18:00:28.337Z,11.32
2022-08-20T18:03:15.870Z,18.42
2022-08-20T18:05:45.057Z,43.85
2022-08-20T18:08:46.215Z,43.22
2022-08-20T18:11:26.314Z,24.35
2022-08-20T18:14:33.950Z,23.70
2022-08-20T18:17:59.173Z,19.33
2022-08-20T18:20:38.512Z,23.10
2022-08-20T18:23:10.693Z,35.28
2022-08-20T18:25:56.883Z,25.70
2022-08-20T18:28:46.150Z,23.83
2022-08-20T18:31:40.521Z,17.85
2022-08-20T18:34:18.001Z,19.65
2022-08-20T18:37:01.719Z,19.40
2022-08-20T18:39:39.937Z,18.23
2022-08-20T18:42:22.407Z,17.50
2022-08-20T18:44:53.335Z,14.32
2022-08-20T18:47:35.068Z,23.42
2022-08-20T18:50:03.936Z,20.88
2022-08-20T18:52:37.648Z,19.25
2022-08-20T18:55:36.823Z,19.77
2022-08-20T18:58:11.516Z,14.77
2022-08-20T19:00:44.469Z,15.23
2022-08-20T19:03:29.047Z,14.52
2022-08-20T19:05:56.738Z,15.98
2022-08-20T19:08:37.433Z,15.35
2022-08-20T19:11:30.432Z,17.92
2022-08-20T19:14:32.962Z,26.85
2022-08-20T19:17:20.430Z,23.85
2022-08-20T19:20:01.824Z,26.67
2022-08-20T19:22:32.172Z,20.67
2022-08-20T19:25:01.139Z,17.98
2022-08-20T19:27:30.759Z,18.55
2022-08-20T19:29:58.592Z,22.20
2022-08-20T19:32:29.458Z,18.45
2022-08-20T19:35:03.940Z,20.33
2022-08-20T19:37:40.224Z,21.88
2022-08-20T19:40:24.884Z,18.52
2022-08-20T19:42:59.549Z,17.70
2022-08-20T19:45:40.061Z,16.77
2022-08-20T19:48:17.365Z,19.48
2022-08-20T19:51:21.286Z,19.75
2022-08-20T19:53:49.631Z,18.40
2022-08-20T19:56:21.278Z,17.52
2022-08-20T19:59:08.431Z,21.33
2022-08-20T20:01:36.709Z,19.15
2022-08-20T20:04:18.060Z,18.00
2022-08-20T20:06:48.407Z,20.00
2022-08-20T20:09:24.856Z,16.42
2022-08-20T20:11:58.132Z,20.25
2022-08-20T20:14:34.300Z,22.50
2022-08-20T20:17:06.831Z,16.25
2022-08-20T20:19:56.651Z,19.42
2022-08-20T20:22:33.533Z,15.27
2022-08-20T20:25:18.186Z,21.77
2022-08-20T20:28:06.747Z,18.92
2022-08-20T20:30:35.137Z,17.48
2022-08-20T20:33:18.323Z,18.35
2022-08-20T20:35:46.667Z,18.02
2022-08-20T20:38:26.857Z,16.92
2022-08-20T20:41:00.790Z,18.05
2022-08-20T20:43:37.822Z,17.15
2022-08-20T20:46:23.629Z,20.98
2022-08-20T20:48:58.702Z,18.90
2022-08-20T20:51:32.660Z,16.92
2022-08-20T20:54:29.496Z,19.02
2022-08-20T20:57:00.908Z,20.20
2022-08-20T20:59:31.846Z,19.80
2022-08-20T21:02:01.249Z,18.67
2022-08-20T21:04:29.525Z,18.05
2022-08-20T21:07:05.045Z,17.33
2022-08-20T21:09:38.986Z,16.15
2022-08-20T21:12:08.369Z,19.23
2022-08-20T21:14:36.576Z,17.83
2022-08-20T21:17:07.640Z,17.30
2022-08-20T21:19:44.889Z,18.08
2022-08-20T21:22:14.986Z,17.15
2022-08-20T21:24:42.701Z,13.52
2022-08-20T21:27:12.400Z,12.88
2022-08-20T21:29:40.072Z,15.82
2022-08-20T21:32:08.062Z,13.07
2022-08-20T21:34:39.945Z,15.55
2022-08-20T21:37:07.703Z,18.23
2022-08-20T21:39:35.446Z,13.43
2022-08-20T21:42:05.755Z,15.43
2022-08-20T21:44:53.521Z,13.82
2022-08-20T21:47:22.090Z,15.27
2022-08-20T21:49:49.578Z,15.52
2022-08-20T21:52:17.248Z,16.50
2022-08-20T21:54:44.780Z,17.77
2022-08-20T21:57:21.350Z,18.85
2022-08-20T21:59:50.173Z,17.13
2022-08-20T22:02:19.587Z,15.40
2022-08-20T22:04:47.176Z,11.77
2022-08-20T22:07:16.225Z,15.98
2022-08-20T22:09:43.703Z,16.30
2022-08-20T22:12:24.047Z,21.88
2022-08-20T22:14:52.873Z,14.43
2022-08-20T22:17:20.849Z,16.45
2022-08-20T22:19:48.284Z,19.33
2022-08-20T22:22:17.384Z,14.57
2022-08-20T22:24:45.659Z,16.98
2022-08-20T22:27:13.852Z,13.98
2022-08-20T22:29:41.874Z,16.15
2022-08-20T22:32:09.345Z,13.88
2022-08-20T22:34:37.977Z,13.23
2022-08-20T22:37:06.120Z,13.45
2022-08-20T22:39:33.584Z,14.85
2022-08-20T22:42:01.029Z,13.35
2022-08-20T22:44:28.808Z,14.00
2022-08-20T22:47:00.891Z,13.07
2022-08-20T22:49:32.094Z,16.35
2022-08-20T22:52:00.362Z,16.67
2022-08-20T22:54:29.019Z,11.45
2022-08-20T22:56:56.522Z,20.02
2022-08-20T22:59:24.776Z,12.80
2022-08-20T23:01:53.655Z,16.55
2022-08-20T23:04:31.689Z,14.73
2022-08-20T23:07:01.583Z,14.55
2022-08-20T23:09:30.255Z,16.08
2022-08-20T23:11:57.885Z,15.20
2022-08-20T23:14:26.969Z,18.27
2022-08-20T23:17:13.089Z,14.75
2022-08-20T23:19:42.101Z,15.52
2022-08-20T23:22:10.363Z,11.93
2022-08-20T23:24:38.479Z,15.02
2022-08-20T23:27:07.844Z,16.60
2022-08-20T23:29:35.679Z,14.35
2022-08-20T23:32:03.590Z,16.23
2022-08-20T23:34:31.213Z,14.45
2022-08-20T23:36:59.958Z,13.73
2022-08-20T23:39:28.569Z,11.82
2022-08-20T23:41:58.044Z,12.30
2022-08-20T23:44:27.123Z,12.27
2022-08-20T23:46:57.185Z,14.63
2022-08-20T23:49:25.746Z,12.80
2022-08-20T23:51:54.570Z,11.00
2022-08-20T23:54:22.211Z,17.02
2022-08-20T23:56:50.021Z,13.75
2022-08-20T23:59:17.682Z,11.63
